createdAt,value
2022-09-28T00:00:06.447Z,75.99
2022-09-28T00:01:06.303Z,76.48
2022-09-28T00:02:06.606Z,76.59
2022-09-28T00:03:06.351Z,76.46
2022-09-28T00:04:06.507Z,76.61
2022-09-28T00:05:06.253Z,76.82
2022-09-28T00:06:06.352Z,76.72
2022-09-28T00:07:06.193Z,76.66
2022-09-28T00:08:06.396Z,76.74
2022-09-28T00:09:06.169Z,76.78
2022-09-28T00:10:06.321Z,76.48
2022-09-28T00:11:06.131Z,76.23
2022-09-28T00:12:07.200Z,76.52
2022-09-28T00:13:06.321Z,76.84
2022-09-28T00:14:06.150Z,77.25
2022-09-28T00:15:06.200Z,77.17
2022-09-28T00:16:06.091Z,76.95
2022-09-28T00:17:06.183Z,77.00
2022-09-28T00:18:06.025Z,76.98
2022-09-28T00:19:06.364Z,77.22
2022-09-28T00:20:06.048Z,77.41
2022-09-28T00:21:06.100Z,77.34
2022-09-28T00:22:05.960Z,77.03
2022-09-28T00:23:06.132Z,76.85
2022-09-28T00:24:05.931Z,76.62
2022-09-28T00:25:06.093Z,76.46
2022-09-28T00:26:05.949Z,76.32
2022-09-28T00:27:06.006Z,76.36
2022-09-28T00:28:05.867Z,76.42
2022-09-28T00:29:06.020Z,76.30
2022-09-28T00:30:05.840Z,76.37
2022-09-28T00:31:06.052Z,76.45
2022-09-28T00:32:05.847Z,76.45
2022-09-28T00:33:05.914Z,76.61
2022-09-28T00:34:05.776Z,76.50
2022-09-28T00:35:06.239Z,76.51
2022-09-28T00:36:05.740Z,76.69
2022-09-28T00:37:05.837Z,76.59
2022-09-28T00:38:06.192Z,76.71
2022-09-28T00:39:05.676Z,76.84
2022-09-28T00:40:05.791Z,76.68
2022-09-28T00:41:05.648Z,76.66
2022-09-28T00:42:05.782Z,76.82
2022-09-28T00:43:05.615Z,77.01
2022-09-28T00:44:05.763Z,77.02
2022-09-28T00:45:05.581Z,77.10
2022-09-28T00:46:05.860Z,77.15
2022-09-28T00:47:05.544Z,77.26
2022-09-28T00:48:05.710Z,77.53
2022-09-28T00:49:05.512Z,77.64
2022-09-28T00:50:05.679Z,77.70
2022-09-28T00:51:05.468Z,77.58
2022-09-28T00:52:05.639Z,77.76
2022-09-28T00:53:05.544Z,77.58
2022-09-28T00:54:05.613Z,77.42
2022-09-28T00:55:05.401Z,77.31
2022-09-28T00:56:05.549Z,77.67
2022-09-28T00:57:05.368Z,77.97
2022-09-28T00:58:05.535Z,77.74
2022-09-28T00:59:05.348Z,77.84
2022-09-28T01:00:06.469Z,77.86
2022-09-28T01:01:05.529Z,77.74
2022-09-28T01:02:05.561Z,77.79
2022-09-28T01:03:05.362Z,77.79
2022-09-28T01:04:05.463Z,78.15
2022-09-28T01:05:05.263Z,78.13
2022-09-28T01:06:05.456Z,78.01
2022-09-28T01:07:05.236Z,78.15
2022-09-28T01:08:05.399Z,78.04
2022-09-28T01:09:05.207Z,78.02
2022-09-28T01:10:05.496Z,77.65
2022-09-28T01:11:05.169Z,77.40
2022-09-28T01:12:05.582Z,77.67
2022-09-28T01:13:05.141Z,77.85
2022-09-28T01:14:05.309Z,77.52
2022-09-28T01:15:05.134Z,77.50
2022-09-28T01:16:05.344Z,77.03
2022-09-28T01:17:05.106Z,77.08
2022-09-28T01:18:05.233Z,77.09
2022-09-28T01:19:05.072Z,77.05
2022-09-28T01:20:05.429Z,77.08
2022-09-28T01:21:05.030Z,77.12
2022-09-28T01:22:06.101Z,77.13
2022-09-28T01:23:05.191Z,77.27
2022-09-28T01:24:05.000Z,77.57
2022-09-28T01:25:05.071Z,77.77
2022-09-28T01:26:05.226Z,77.72
2022-09-28T01:27:04.950Z,78.10
2022-09-28T01:28:05.023Z,78.48
2022-09-28T01:29:04.920Z,78.43
2022-09-28T01:30:05.400Z,78.14
2022-09-28T01:31:04.881Z,78.20
2022-09-28T01:32:05.033Z,78.20
2022-09-28T01:33:04.834Z,78.21
2022-09-28T01:34:04.996Z,78.31
2022-09-28T01:35:04.798Z,78.42
2022-09-28T01:36:04.955Z,78.53
2022-09-28T01:37:04.749Z,78.57
2022-09-28T01:38:04.950Z,78.85
2022-09-28T01:39:04.706Z,79.01
2022-09-28T01:40:04.877Z,79.19
2022-09-28T01:41:04.657Z,79.21
2022-09-28T01:42:04.852Z,79.36
2022-09-28T01:43:04.618Z,79.54
2022-09-28T01:44:04.788Z,79.59
2022-09-28T01:45:04.564Z,79.51
2022-09-28T01:46:04.815Z,79.38
2022-09-28T01:47:04.522Z,79.44
2022-09-28T01:48:04.611Z,79.58
2022-09-28T01:49:04.476Z,79.62
2022-09-28T01:50:04.680Z,79.70
2022-09-28T01:51:04.440Z,79.83
2022-09-28T01:52:04.585Z,79.83
2022-09-28T01:53:04.387Z,79.80
2022-09-28T01:54:04.503Z,79.96
2022-09-28T01:55:04.347Z,80.07
2022-09-28T01:56:04.553Z,80.05
2022-09-28T01:57:04.314Z,80.05
2022-09-28T01:58:04.484Z,80.19
2022-09-28T01:59:04.277Z,80.25
2022-09-28T02:00:04.651Z,80.50
2022-09-28T02:01:04.273Z,80.66
2022-09-28T02:02:04.485Z,80.73
2022-09-28T02:03:04.177Z,80.87
2022-09-28T02:04:04.291Z,81.01
2022-09-28T02:05:04.136Z,81.17
2022-09-28T02:06:04.291Z,81.40
2022-09-28T02:07:04.098Z,81.39
2022-09-28T02:08:04.410Z,81.46
2022-09-28T02:09:04.062Z,81.47
2022-09-28T02:10:04.171Z,81.59
2022-09-28T02:11:04.007Z,81.64
2022-09-28T02:12:04.169Z,81.71
2022-09-28T02:13:04.474Z,81.81
2022-09-28T02:14:03.946Z,81.85
2022-09-28T02:15:04.095Z,81.88
2022-09-28T02:16:03.977Z,81.76
2022-09-28T02:17:04.005Z,81.77
2022-09-28T02:18:03.851Z,81.87
2022-09-28T02:19:04.057Z,81.94
2022-09-28T02:20:03.808Z,81.83
2022-09-28T02:21:03.974Z,81.78
2022-09-28T02:22:03.772Z,81.72
2022-09-28T02:23:03.862Z,81.71
2022-09-28T02:24:03.987Z,81.76
2022-09-28T02:25:03.698Z,81.70
2022-09-28T02:26:03.811Z,81.66
2022-09-28T02:27:03.661Z,81.70
2022-09-28T02:28:03.845Z,81.75
2022-09-28T02:29:03.613Z,81.70
2022-09-28T02:30:03.773Z,81.78
2022-09-28T02:31:03.618Z,81.72
2022-09-28T02:32:03.757Z,81.80
2022-09-28T02:33:03.514Z,81.73
2022-09-28T02:34:03.636Z,81.78
2022-09-28T02:35:03.486Z,81.70
2022-09-28T02:36:03.690Z,81.70
2022-09-28T02:37:03.430Z,81.78
2022-09-28T02:38:03.541Z,81.73
2022-09-28T02:39:03.395Z,81.70
2022-09-28T02:40:03.618Z,81.72
2022-09-28T02:41:03.322Z,81.74
2022-09-28T02:42:03.473Z,81.83
2022-09-28T02:43:03.277Z,81.87
2022-09-28T02:44:03.430Z,81.86
2022-09-28T02:45:03.240Z,81.82
2022-09-28T02:46:03.363Z,81.91
2022-09-28T02:47:03.173Z,81.93
2022-09-28T02:48:03.417Z,81.92
2022-09-28T02:49:20.431Z,81.90
2022-09-28T02:50:03.246Z,82.03
2022-09-28T02:51:03.088Z,82.10
2022-09-28T02:52:03.245Z,82.06
2022-09-28T02:53:03.047Z,82.15
2022-09-28T02:54:03.228Z,82.20
2022-09-28T02:55:03.045Z,82.13
2022-09-28T02:56:03.220Z,82.30
2022-09-28T02:57:02.974Z,82.35
2022-09-28T02:58:03.091Z,82.32
2022-09-28T02:59:02.932Z,82.27
2022-09-28T03:00:03.183Z,82.35
2022-09-28T03:01:02.951Z,82.58
2022-09-28T03:02:03.076Z,82.65
2022-09-28T03:03:02.842Z,83.02
2022-09-28T03:04:03.004Z,82.99
2022-09-28T03:05:02.850Z,82.47
2022-09-28T03:06:02.899Z,82.21
2022-09-28T03:07:02.738Z,81.89
2022-09-28T03:08:02.993Z,81.91
2022-09-28T03:09:02.691Z,81.66
2022-09-28T03:10:02.816Z,81.42
2022-09-28T03:11:02.924Z,81.24
2022-09-28T03:12:02.632Z,81.09
2022-09-28T03:13:02.728Z,80.89
2022-09-28T03:14:02.584Z,80.76
2022-09-28T03:15:02.752Z,80.62
2022-09-28T03:16:02.618Z,80.44
2022-09-28T03:17:02.733Z,80.60
2022-09-28T03:18:02.500Z,80.55
2022-09-28T03:19:02.599Z,80.88
2022-09-28T03:20:02.446Z,80.73
2022-09-28T03:21:02.601Z,80.55
2022-09-28T03:22:02.398Z,80.60
2022-09-28T03:24:01.286Z,80.37
2022-09-28T03:25:02.474Z,80.59
2022-09-28T03:26:02.322Z,80.67
2022-09-28T03:27:02.503Z,80.93
2022-09-28T03:28:02.289Z,81.29
2022-09-28T03:29:02.442Z,81.45
2022-09-28T03:30:02.261Z,81.47
2022-09-28T03:31:02.628Z,81.58
2022-09-28T03:32:02.218Z,81.65
2022-09-28T03:33:02.332Z,81.73
2022-09-28T03:34:02.176Z,82.11
2022-09-28T03:35:02.406Z,82.39
2022-09-28T03:36:02.137Z,82.30
2022-09-28T03:37:02.298Z,82.30
2022-09-28T03:38:02.099Z,82.52
2022-09-28T03:39:02.202Z,82.59
2022-09-28T03:40:02.070Z,82.57
2022-09-28T03:41:02.310Z,82.14
2022-09-28T03:42:02.024Z,81.34
2022-09-28T03:43:02.180Z,80.68
2022-09-28T03:44:01.993Z,80.29
2022-09-28T03:45:02.110Z,79.97
2022-09-28T03:46:02.041Z,79.93
2022-09-28T03:47:02.193Z,79.27
2022-09-28T03:48:01.952Z,78.72
2022-09-28T03:49:02.068Z,79.12
2022-09-28T03:50:01.934Z,79.06
2022-09-28T03:51:02.090Z,79.05
2022-09-28T03:52:01.917Z,79.29
2022-09-28T03:53:02.177Z,79.48
2022-09-28T03:54:01.885Z,79.82
2022-09-28T03:55:02.022Z,79.51
2022-09-28T03:56:01.866Z,79.82
2022-09-28T03:57:01.985Z,80.05
2022-09-28T03:58:01.847Z,79.49
2022-09-28T03:59:02.073Z,79.51
2022-09-28T04:00:01.830Z,80.20
2022-09-28T04:01:02.077Z,80.59
2022-09-28T04:02:01.945Z,80.62
2022-09-28T04:03:01.886Z,80.71
2022-09-28T04:04:01.758Z,80.53
2022-09-28T04:05:01.960Z,80.86
2022-09-28T04:06:01.712Z,81.29
2022-09-28T04:07:01.817Z,81.56
2022-09-28T04:08:01.668Z,81.41
2022-09-28T04:09:02.799Z,81.62
2022-09-28T04:10:01.755Z,81.71
2022-09-28T04:11:01.840Z,81.71
2022-09-28T04:12:04.246Z,81.43
2022-09-28T04:13:01.706Z,81.23
2022-09-28T04:14:01.557Z,81.01
2022-09-28T04:15:01.705Z,81.23
2022-09-28T04:16:01.760Z,81.49
2022-09-28T04:17:01.718Z,81.61
2022-09-28T04:18:01.472Z,82.03
2022-09-28T04:19:01.574Z,82.46
2022-09-28T04:20:01.433Z,81.83
2022-09-28T04:21:01.599Z,81.14
2022-09-28T04:22:01.417Z,80.79
2022-09-28T04:23:01.626Z,80.82
2022-09-28T04:24:01.394Z,81.22
2022-09-28T04:25:01.564Z,81.43
2022-09-28T04:26:01.373Z,81.19
2022-09-28T04:27:01.502Z,81.47
2022-09-28T04:28:01.358Z,82.01
2022-09-28T04:29:06.151Z,82.73
2022-09-28T04:30:01.329Z,82.35
2022-09-28T04:31:01.440Z,82.31
2022-09-28T04:32:01.379Z,80.80
2022-09-28T04:33:01.498Z,80.92
2022-09-28T04:34:01.313Z,80.04
2022-09-28T04:35:01.499Z,80.38
2022-09-28T04:36:01.302Z,80.89
2022-09-28T04:37:01.475Z,81.96
2022-09-28T04:38:01.281Z,81.77
2022-09-28T04:39:01.396Z,82.06
2022-09-28T04:40:01.277Z,81.32
2022-09-28T04:41:01.601Z,81.32
2022-09-28T04:42:01.264Z,80.42
2022-09-28T04:43:01.394Z,80.52
2022-09-28T04:44:01.260Z,80.39
2022-09-28T04:45:01.518Z,80.89
2022-09-28T04:46:01.314Z,80.58
2022-09-28T04:47:04.998Z,80.53
2022-09-28T04:48:01.253Z,80.10
2022-09-28T04:49:01.438Z,80.12
2022-09-28T04:50:01.244Z,79.79
2022-09-28T04:51:01.370Z,79.98
2022-09-28T04:52:01.240Z,79.98
2022-09-28T04:53:01.463Z,80.00
2022-09-28T04:54:01.224Z,80.43
2022-09-28T04:55:01.349Z,80.86
2022-09-28T04:56:01.219Z,80.31
2022-09-28T04:57:01.396Z,80.48
2022-09-28T04:58:01.206Z,80.39
2022-09-28T04:59:01.495Z,80.11
2022-09-28T05:00:01.195Z,80.31
2022-09-28T05:01:01.435Z,80.06
2022-09-28T05:02:01.228Z,80.35
2022-09-28T05:03:01.312Z,79.90
2022-09-28T05:04:01.184Z,79.76
2022-09-28T05:05:01.397Z,80.49
2022-09-28T05:06:01.163Z,81.57
2022-09-28T05:07:01.302Z,81.56
2022-09-28T05:08:01.173Z,81.19
2022-09-28T05:09:01.345Z,81.51
2022-09-28T05:10:01.172Z,81.46
2022-09-28T05:11:01.498Z,81.79
2022-09-28T05:12:01.187Z,81.81
2022-09-28T05:13:01.320Z,81.76
2022-09-28T05:14:01.180Z,82.05
2022-09-28T05:15:01.380Z,81.78
2022-09-28T05:16:05.247Z,81.68
2022-09-28T05:17:01.530Z,80.75
2022-09-28T05:18:01.191Z,80.81
2022-09-28T05:19:01.376Z,81.14
2022-09-28T05:20:01.195Z,81.53
2022-09-28T05:21:01.487Z,81.61
2022-09-28T05:22:01.206Z,82.20
2022-09-28T05:23:01.423Z,82.14
2022-09-28T05:24:01.212Z,82.03
2022-09-28T05:25:01.345Z,82.42
2022-09-28T05:26:01.218Z,82.30
2022-09-28T05:27:01.406Z,82.48
2022-09-28T05:28:01.233Z,82.05
2022-09-28T05:29:01.526Z,81.93
2022-09-28T05:30:01.268Z,81.65
2022-09-28T05:31:01.406Z,82.08
2022-09-28T05:32:01.349Z,82.31
2022-09-28T05:33:01.465Z,82.32
2022-09-28T05:34:01.285Z,81.56
2022-09-28T05:35:01.463Z,81.27
2022-09-28T05:36:01.959Z,81.08
2022-09-28T05:37:01.475Z,80.99
2022-09-28T05:38:01.302Z,80.92
2022-09-28T05:39:01.420Z,80.90
2022-09-28T05:40:01.557Z,80.62
2022-09-28T05:41:06.313Z,80.52
2022-09-28T05:42:01.309Z,80.48
2022-09-28T05:43:01.629Z,80.45
2022-09-28T05:44:01.294Z,80.35
2022-09-28T05:45:01.471Z,80.34
2022-09-28T05:46:01.365Z,80.13
2022-09-28T05:47:01.493Z,80.09
2022-09-28T05:48:01.260Z,79.99
2022-09-28T05:49:01.427Z,79.85
2022-09-28T05:50:01.246Z,79.77
2022-09-28T05:51:01.370Z,79.86
2022-09-28T05:52:01.242Z,80.03
2022-09-28T05:53:01.453Z,80.24
2022-09-28T05:54:05.632Z,80.32
2022-09-28T05:55:01.330Z,80.51
2022-09-28T05:56:01.617Z,80.52
2022-09-28T05:57:01.182Z,80.51
2022-09-28T05:58:01.300Z,80.51
2022-09-28T05:59:01.436Z,80.48
2022-09-28T06:00:01.150Z,80.45
2022-09-28T06:01:01.338Z,80.39
2022-09-28T06:02:01.208Z,80.44
2022-09-28T06:03:03.416Z,80.50
2022-09-28T06:04:01.096Z,80.62
2022-09-28T06:05:01.279Z,80.66
2022-09-28T06:06:01.076Z,80.62
2022-09-28T06:07:01.180Z,80.63
2022-09-28T06:08:01.037Z,80.84
2022-09-28T06:09:01.192Z,80.81
2022-09-28T06:10:01.005Z,80.80
2022-09-28T06:11:01.172Z,80.81
2022-09-28T06:12:00.979Z,80.90
2022-09-28T06:13:01.166Z,80.99
2022-09-28T06:14:00.956Z,81.03
2022-09-28T06:15:01.119Z,80.74
2022-09-28T06:16:00.931Z,80.86
2022-09-28T06:17:01.164Z,80.79
2022-09-28T06:18:00.893Z,80.82
2022-09-28T06:19:01.056Z,81.03
2022-09-28T06:20:00.877Z,81.08
2022-09-28T06:21:01.288Z,80.91
2022-09-28T06:22:00.851Z,80.79
2022-09-28T06:23:01.061Z,80.66
2022-09-28T06:24:00.815Z,80.46
2022-09-28T06:25:00.994Z,80.49
2022-09-28T06:26:00.793Z,80.60
2022-09-28T06:27:00.954Z,80.85
2022-09-28T06:28:00.766Z,80.81
2022-09-28T06:29:00.925Z,80.67
2022-09-28T06:30:00.747Z,80.57
2022-09-28T06:31:01.203Z,80.37
2022-09-28T06:32:00.692Z,80.38
2022-09-28T06:33:00.807Z,80.53
2022-09-28T06:34:00.658Z,80.78
2022-09-28T06:35:00.865Z,80.96
2022-09-28T06:36:00.618Z,81.13
2022-09-28T06:37:00.776Z,81.23
2022-09-28T06:38:00.579Z,81.21
2022-09-28T06:39:00.679Z,81.02
2022-09-28T06:40:00.532Z,80.88
2022-09-28T06:41:00.857Z,80.74
2022-09-28T06:42:00.493Z,80.66
2022-09-28T06:43:00.633Z,80.99
2022-09-28T06:44:00.461Z,81.03
2022-09-28T06:45:00.579Z,81.10
2022-09-28T06:46:00.762Z,81.16
2022-09-28T06:47:00.417Z,81.22
2022-09-28T06:48:00.522Z,81.13
2022-09-28T06:49:00.397Z,81.03
2022-09-28T06:50:00.534Z,81.08
2022-09-28T06:51:00.335Z,81.22
2022-09-28T06:52:00.533Z,81.30
2022-09-28T06:53:00.305Z,81.38
2022-09-28T06:54:00.384Z,81.23
2022-09-28T06:55:00.261Z,80.87
2022-09-28T06:56:00.438Z,80.85
2022-09-28T06:57:00.228Z,81.09
2022-09-28T06:58:00.446Z,81.40
2022-09-28T06:59:00.193Z,81.36
2022-09-28T07:00:00.298Z,81.20
2022-09-28T07:01:00.396Z,81.18
2022-09-28T07:02:00.323Z,81.11
2022-09-28T07:03:00.111Z,81.42
2022-09-28T07:04:00.312Z,81.56
2022-09-28T07:05:00.074Z,81.73
2022-09-28T07:06:00.229Z,81.84
2022-09-28T07:07:00.025Z,81.91
2022-09-28T07:08:00.300Z,81.87
2022-09-28T07:09:11.238Z,81.90
2022-09-28T07:10:00.198Z,81.91
2022-09-28T07:10:59.949Z,81.83
2022-09-28T07:12:00.318Z,81.63
2022-09-28T07:12:59.915Z,81.42
2022-09-28T07:14:00.031Z,81.38
2022-09-28T07:14:59.875Z,81.40
2022-09-28T07:16:00.096Z,81.42
2022-09-28T07:17:12.975Z,81.24
2022-09-28T07:18:03.253Z,81.07
2022-09-28T07:18:59.798Z,80.92
2022-09-28T07:20:10.386Z,80.78
2022-09-28T07:20:59.758Z,80.60
2022-09-28T07:22:05.213Z,80.45
2022-09-28T07:23:11.885Z,80.36
2022-09-28T07:23:59.893Z,80.18
2022-09-28T07:24:59.657Z,80.01
2022-09-28T07:25:59.796Z,79.91
2022-09-28T07:26:59.605Z,80.01
2022-09-28T07:27:59.866Z,80.04
2022-09-28T07:28:59.560Z,80.07
2022-09-28T07:29:59.698Z,80.09
2022-09-28T07:30:59.527Z,80.09
2022-09-28T07:31:59.593Z,80.20
2022-09-28T07:32:59.444Z,80.23
2022-09-28T07:33:59.651Z,80.19
2022-09-28T07:34:59.405Z,80.27
2022-09-28T07:35:59.491Z,80.29
2022-09-28T07:36:59.336Z,80.46
2022-09-28T07:37:59.484Z,80.54
2022-09-28T07:38:59.269Z,80.60
2022-09-28T07:39:59.477Z,80.66
2022-09-28T07:40:59.258Z,80.69
2022-09-28T07:42:02.489Z,80.65
2022-09-28T07:42:59.154Z,80.64
2022-09-28T07:43:59.254Z,80.53
2022-09-28T07:44:59.090Z,80.54
2022-09-28T07:45:59.356Z,80.52
2022-09-28T07:46:59.023Z,80.49
2022-09-28T07:47:59.167Z,80.53
2022-09-28T07:48:58.992Z,80.43
2022-09-28T07:49:59.099Z,80.21
2022-09-28T07:50:58.904Z,80.10
2022-09-28T07:51:59.079Z,80.06
2022-09-28T07:52:58.847Z,79.99
2022-09-28T07:53:59.007Z,80.04
2022-09-28T07:55:01.270Z,79.98
2022-09-28T07:55:58.975Z,79.94
2022-09-28T07:56:58.715Z,80.01
2022-09-28T07:57:58.907Z,80.04
2022-09-28T07:58:58.646Z,79.96
2022-09-28T07:59:58.733Z,80.02
2022-09-28T08:00:58.650Z,79.94
2022-09-28T08:01:58.712Z,80.06
2022-09-28T08:02:58.481Z,79.94
2022-09-28T08:03:58.588Z,80.00
2022-09-28T08:04:58.406Z,79.97
2022-09-28T08:05:58.550Z,79.93
2022-09-28T08:06:58.332Z,79.89
2022-09-28T08:07:58.429Z,79.66
2022-09-28T08:08:58.270Z,79.72
2022-09-28T08:09:58.488Z,79.78
2022-09-28T08:10:58.190Z,79.82
2022-09-28T08:11:58.333Z,79.82
2022-09-28T08:13:00.643Z,79.83
2022-09-28T08:13:58.250Z,79.92
2022-09-28T08:14:58.024Z,80.07
2022-09-28T08:15:58.215Z,80.24
2022-09-28T08:16:57.949Z,80.28
2022-09-28T08:18:01.934Z,80.30
2022-09-28T08:18:57.875Z,80.13
2022-09-28T08:19:58.011Z,80.32
2022-09-28T08:20:57.798Z,80.35
2022-09-28T08:21:58.009Z,80.21
2022-09-28T08:22:57.722Z,80.23
2022-09-28T08:23:57.881Z,80.38
2022-09-28T08:24:57.656Z,80.32
2022-09-28T08:25:57.783Z,80.40
2022-09-28T08:26:57.566Z,80.53
2022-09-28T08:27:58.008Z,80.63
2022-09-28T08:28:57.501Z,80.65
2022-09-28T08:29:57.594Z,80.68
2022-09-28T08:30:57.475Z,80.62
2022-09-28T08:32:01.381Z,80.74
2022-09-28T08:32:57.355Z,80.75
2022-09-28T08:33:57.501Z,80.59
2022-09-28T08:34:57.287Z,80.54
2022-09-28T08:35:57.423Z,80.48
2022-09-28T08:36:57.200Z,80.35
2022-09-28T08:37:57.332Z,80.63
2022-09-28T08:38:57.129Z,80.73
2022-09-28T08:39:57.266Z,80.77
2022-09-28T08:40:57.142Z,80.62
2022-09-28T08:41:57.196Z,80.57
2022-09-28T08:42:56.984Z,80.47
2022-09-28T08:43:57.082Z,80.56
2022-09-28T08:44:56.911Z,80.63
2022-09-28T08:45:57.131Z,80.55
2022-09-28T08:46:56.827Z,80.47
2022-09-28T08:47:56.910Z,80.40
2022-09-28T08:49:20.589Z,80.12
2022-09-28T08:49:56.881Z,80.30
2022-09-28T08:50:56.672Z,80.37
2022-09-28T08:51:56.827Z,80.26
2022-09-28T08:52:56.599Z,80.38
2022-09-28T08:53:56.743Z,80.39
2022-09-28T08:54:56.560Z,80.32
2022-09-28T08:55:56.626Z,80.37
2022-09-28T08:56:56.453Z,80.42
2022-09-28T08:57:56.633Z,80.64
2022-09-28T08:58:56.360Z,80.93
2022-09-28T08:59:56.491Z,81.02
2022-09-28T09:00:56.324Z,81.06
2022-09-28T09:01:57.895Z,80.97
2022-09-28T09:02:56.217Z,80.90
2022-09-28T09:03:56.312Z,80.72
2022-09-28T09:04:56.089Z,80.82
2022-09-28T09:05:57.183Z,80.28
2022-09-28T09:06:56.204Z,80.60
2022-09-28T09:07:55.989Z,80.58
2022-09-28T09:08:56.088Z,80.44
2022-09-28T09:09:55.923Z,80.29
2022-09-28T09:10:55.958Z,80.07
2022-09-28T09:11:55.800Z,80.23
2022-09-28T09:12:56.030Z,80.48
2022-09-28T09:13:55.713Z,81.09
2022-09-28T09:14:55.818Z,81.56
2022-09-28T09:15:55.923Z,82.12
2022-09-28T09:16:59.837Z,82.34
2022-09-28T09:17:55.703Z,82.43
2022-09-28T09:18:55.530Z,82.29
2022-09-28T09:19:55.669Z,81.92
2022-09-28T09:20:55.495Z,81.50
2022-09-28T09:21:55.581Z,81.29
2022-09-28T09:22:55.360Z,81.24
2022-09-28T09:23:55.499Z,81.29
2022-09-28T09:24:55.279Z,81.32
2022-09-28T09:25:55.411Z,81.26
2022-09-28T09:26:55.241Z,81.00
2022-09-28T09:27:55.293Z,80.90
2022-09-28T09:28:55.116Z,80.89
2022-09-28T09:29:55.248Z,80.95
2022-09-28T09:30:55.069Z,80.91
2022-09-28T09:31:55.182Z,80.84
2022-09-28T09:32:55.010Z,80.68
2022-09-28T09:33:55.051Z,80.51
2022-09-28T09:34:54.889Z,80.47
2022-09-28T09:35:55.012Z,80.43
2022-09-28T09:36:54.818Z,80.37
2022-09-28T09:37:58.316Z,80.44
2022-09-28T09:38:54.775Z,80.46
2022-09-28T09:39:54.839Z,80.69
2022-09-28T09:40:54.921Z,80.61
2022-09-28T09:41:54.790Z,80.62
2022-09-28T09:42:54.578Z,80.67
2022-09-28T09:43:54.738Z,80.56
2022-09-28T09:44:54.551Z,80.52
2022-09-28T09:45:54.854Z,80.54
2022-09-28T09:46:54.412Z,80.76
2022-09-28T09:47:54.504Z,81.01
2022-09-28T09:48:54.338Z,81.06
2022-09-28T09:49:54.481Z,81.48
2022-09-28T09:50:54.303Z,81.39
2022-09-28T09:51:54.413Z,81.41
2022-09-28T09:52:54.215Z,81.61
2022-09-28T09:53:54.272Z,81.97
2022-09-28T09:54:54.111Z,82.27
2022-09-28T09:55:54.267Z,82.73
2022-09-28T09:56:54.110Z,82.44
2022-09-28T09:57:54.151Z,82.21
2022-09-28T09:58:53.997Z,82.13
2022-09-28T09:59:54.301Z,82.11
2022-09-28T10:00:54.011Z,81.37
2022-09-28T10:01:54.049Z,81.63
2022-09-28T10:02:54.180Z,81.63
2022-09-28T10:03:53.885Z,82.07
2022-09-28T10:04:53.937Z,82.79
2022-09-28T10:05:53.824Z,83.43
2022-09-28T10:06:54.217Z,84.06
2022-09-28T10:07:53.762Z,84.12
2022-09-28T10:08:54.020Z,83.76
2022-09-28T10:09:53.714Z,83.48
2022-09-28T10:10:53.860Z,84.02
2022-09-28T10:11:53.660Z,84.48
2022-09-28T10:12:53.816Z,84.71
2022-09-28T10:13:53.642Z,84.70
2022-09-28T10:14:53.793Z,84.99
2022-09-28T10:15:53.604Z,84.35
2022-09-28T10:16:53.944Z,84.23
2022-09-28T10:17:53.593Z,84.48
2022-09-28T10:18:53.739Z,84.11
2022-09-28T10:19:53.537Z,84.23
2022-09-28T10:20:53.800Z,84.71
2022-09-28T10:21:53.510Z,85.36
2022-09-28T10:22:53.664Z,84.75
2022-09-28T10:23:53.497Z,84.76
2022-09-28T10:24:53.601Z,84.75
2022-09-28T10:25:53.452Z,85.05
2022-09-28T10:26:53.671Z,85.60
2022-09-28T10:27:53.432Z,85.86
2022-09-28T10:28:53.580Z,86.08
2022-09-28T10:29:53.420Z,86.17
2022-09-28T10:30:53.664Z,85.99
2022-09-28T10:31:53.383Z,86.00
2022-09-28T10:32:53.596Z,86.23
2022-09-28T10:33:53.367Z,86.63
2022-09-28T10:34:53.544Z,86.82
2022-09-28T10:35:53.349Z,86.58
2022-09-28T10:36:53.451Z,86.64
2022-09-28T10:37:53.329Z,86.87
2022-09-28T10:38:53.553Z,86.60
2022-09-28T10:39:53.358Z,86.28
2022-09-28T10:40:53.542Z,85.76
2022-09-28T10:41:53.304Z,85.42
2022-09-28T10:42:53.428Z,85.13
2022-09-28T10:43:57.445Z,84.96
2022-09-28T10:44:53.447Z,84.97
2022-09-28T10:45:53.275Z,85.08
2022-09-28T10:46:53.503Z,84.79
2022-09-28T10:47:53.272Z,85.16
2022-09-28T10:48:53.451Z,85.25
2022-09-28T10:49:53.224Z,85.59
2022-09-28T10:50:53.396Z,84.95
2022-09-28T10:51:53.212Z,84.67
2022-09-28T10:52:53.333Z,84.32
2022-09-28T10:53:53.182Z,84.56
2022-09-28T10:54:53.341Z,84.78
2022-09-28T10:55:53.145Z,85.18
2022-09-28T10:56:54.346Z,85.57
2022-09-28T10:57:53.231Z,85.54
2022-09-28T10:58:53.117Z,85.36
2022-09-28T10:59:53.373Z,85.47
2022-09-28T11:00:53.132Z,85.42
2022-09-28T11:01:53.192Z,85.53
2022-09-28T11:02:53.373Z,85.76
2022-09-28T11:03:53.038Z,85.89
2022-09-28T11:04:53.147Z,86.32
2022-09-28T11:05:53.019Z,86.41
2022-09-28T11:06:53.245Z,86.62
2022-09-28T11:07:52.992Z,86.78
2022-09-28T11:08:53.156Z,86.52
2022-09-28T11:09:52.977Z,86.65
2022-09-28T11:10:53.147Z,86.58
2022-09-28T11:11:52.932Z,86.76
2022-09-28T11:12:53.067Z,86.61
2022-09-28T11:13:52.895Z,86.66
2022-09-28T11:14:53.046Z,86.77
2022-09-28T11:15:52.857Z,87.04
2022-09-28T11:16:53.065Z,87.07
2022-09-28T11:17:52.834Z,86.96
2022-09-28T11:18:52.950Z,87.16
2022-09-28T11:19:52.803Z,86.91
2022-09-28T11:20:53.055Z,87.13
2022-09-28T11:21:52.764Z,86.89
2022-09-28T11:22:53.621Z,86.75
2022-09-28T11:23:52.735Z,86.65
2022-09-28T11:24:52.851Z,86.79
2022-09-28T11:25:52.703Z,86.68
2022-09-28T11:26:52.914Z,86.07
2022-09-28T11:27:52.664Z,85.44
2022-09-28T11:28:52.822Z,85.70
2022-09-28T11:29:52.605Z,85.61
2022-09-28T11:30:52.795Z,86.09
2022-09-28T11:31:52.563Z,85.51
2022-09-28T11:32:52.802Z,85.50
2022-09-28T11:33:52.500Z,85.26
2022-09-28T11:34:59.712Z,85.42
2022-09-28T11:35:52.462Z,86.09
2022-09-28T11:36:52.589Z,86.50
2022-09-28T11:37:52.391Z,85.89
2022-09-28T11:38:52.586Z,85.28
2022-09-28T11:39:52.334Z,85.36
2022-09-28T11:40:52.483Z,85.92
2022-09-28T11:41:52.285Z,86.12
2022-09-28T11:42:52.525Z,86.37
2022-09-28T11:43:52.245Z,86.65
2022-09-28T11:44:52.435Z,86.85
2022-09-28T11:45:52.243Z,86.09
2022-09-28T11:46:52.293Z,85.96
2022-09-28T11:47:52.134Z,86.11
2022-09-28T11:48:52.288Z,86.40
2022-09-28T11:49:52.079Z,86.07
2022-09-28T11:50:52.289Z,85.39
2022-09-28T11:51:52.035Z,85.30
2022-09-28T11:52:52.134Z,85.50
2022-09-28T11:53:51.984Z,85.86
2022-09-28T11:54:52.138Z,86.10
2022-09-28T11:55:51.924Z,86.16
2022-09-28T11:56:52.419Z,86.26
2022-09-28T11:57:51.887Z,86.38
2022-09-28T11:58:51.977Z,86.50
2022-09-28T11:59:51.830Z,86.34
2022-09-28T12:00:51.971Z,86.40
2022-09-28T12:01:51.775Z,86.40
2022-09-28T12:02:52.105Z,85.80
2022-09-28T12:03:51.884Z,86.37
2022-09-28T12:04:51.889Z,86.16
2022-09-28T12:05:51.677Z,86.06
2022-09-28T12:06:51.786Z,85.52
2022-09-28T12:07:51.713Z,84.96
2022-09-28T12:08:51.807Z,84.67
2022-09-28T12:09:51.590Z,85.10
2022-09-28T12:10:51.739Z,85.73
2022-09-28T12:11:51.533Z,85.86
2022-09-28T12:12:51.689Z,86.25
2022-09-28T12:13:51.506Z,85.91
2022-09-28T12:14:51.663Z,85.07
2022-09-28T12:17:06.011Z,85.52
2022-09-28T12:17:51.668Z,85.74
2022-09-28T12:18:51.454Z,85.44
2022-09-28T12:19:51.597Z,84.84
2022-09-28T12:20:51.452Z,84.87
2022-09-28T12:21:51.575Z,85.15
2022-09-28T12:22:51.383Z,85.10
2022-09-28T12:23:51.542Z,85.35
2022-09-28T12:24:51.359Z,85.78
2022-09-28T12:25:51.475Z,85.67
2022-09-28T12:26:51.628Z,85.37
2022-09-28T12:27:51.334Z,85.45
2022-09-28T12:28:51.450Z,85.11
2022-09-28T12:29:51.320Z,85.37
2022-09-28T12:30:51.581Z,85.51
2022-09-28T12:31:51.315Z,85.51
2022-09-28T12:32:51.540Z,85.81
2022-09-28T12:33:51.299Z,85.86
2022-09-28T12:34:51.465Z,85.54
2022-09-28T12:35:51.293Z,85.37
2022-09-28T12:36:51.394Z,84.96
2022-09-28T12:37:54.518Z,84.91
2022-09-28T12:39:14.686Z,84.95
2022-09-28T12:39:58.015Z,85.04
2022-09-28T12:40:51.499Z,84.71
2022-09-28T12:41:51.229Z,84.41
2022-09-28T12:42:51.473Z,83.58
2022-09-28T12:43:51.215Z,83.29
2022-09-28T12:44:52.949Z,83.53
2022-09-28T12:46:10.483Z,83.78
2022-09-28T12:46:51.427Z,84.10
2022-09-28T12:47:51.153Z,84.59
2022-09-28T12:49:24.099Z,84.31
2022-09-28T12:50:56.979Z,84.39
2022-09-28T12:51:51.281Z,84.47
2022-09-28T12:52:51.097Z,84.22
2022-09-28T12:53:51.210Z,84.20
2022-09-28T12:54:51.064Z,84.01